Time;durP1;ratioP1;P1;durP2;ratioP2;P2;SDS_P1;SDS_P2;PMS_P1;PMS_P2;Temp;Humidity;BMP_temperature;BMP_pressure;BME280_temperature;BME280_humidity;BME280_pressure;Samples;Min_cycle;Max_cycle;Signal;HPM_P1;HPM_P2
2021/04/12 00:00:40;;;;;;;14.82;5.32;;;15.40;50.20;;;;;;10232141;28;20416;-86
2021/04/12 00:05:42;;;;;;;9.05;5.22;;;14.60;49.20;;;;;;10215133;28;20044;-84
2021/04/12 00:10:42;;;;;;;10.73;5.05;;;12.80;49.00;;;;;;10213018;28;20051;-86
2021/04/12 00:15:41;;;;;;;12.05;5.47;;;14.30;49.30;;;;;;10214484;28;20538;-81
2021/04/12 00:20:39;;;;;;;12.23;6.10;;;14.70;49.50;;;;;;10214975;28;20052;-81
2021/04/12 00:25:37;;;;;;;11.43;5.43;;;14.50;50.00;;;;;;10214584;28;20291;-85
2021/04/12 00:30:36;;;;;;;15.23;5.83;;;14.20;49.10;;;;;;10214801;28;20055;-85
2021/04/12 00:35:32;;;;;;;9.73;5.20;;;14.60;50.30;;;;;;10215230;28;20044;-87
2021/04/12 00:40:35;;;;;;;11.65;5.63;;;15.70;51.20;;;;;;10206083;28;20055;-84
2021/04/12 00:45:54;;;;;;;12.95;5.40;;;14.10;49.60;;;;;;10213777;28;20486;-87
2021/04/12 00:50:53;;;;;;;12.43;5.33;;;14.80;50.70;;;;;;10213851;28;20541;-85
2021/04/12 00:55:53;;;;;;;14.35;6.03;;;14.80;49.90;;;;;;10195831;28;20089;-85
2021/04/12 01:00:55;;;;;;;12.77;5.95;;;15.30;50.10;;;;;;10213615;28;20494;-86
2021/04/12 01:06:00;;;;;;;13.45;6.13;;;12.70;49.80;;;;;;10212792;27;20044;-84
2021/04/12 01:11:29;;;;;;;12.07;6.38;;;14.30;49.90;;;;;;10215189;28;20043;-84
2021/04/12 01:16:53;;;;;;;14.02;6.03;;;15.90;51.70;;;;;;10220157;28;20040;-83
2021/04/12 01:22:32;;;;;;;14.68;5.80;;;14.00;50.10;;;;;;10220157;28;20512;-84
2021/04/12 01:28:11;;;;;;;18.10;5.88;;;13.80;49.70;;;;;;10219420;28;20043;-84
2021/04/12 01:33:39;;;;;;;12.07;5.70;;;13.90;50.20;;;;;;10184112;28;20513;-84
2021/04/12 01:38:37;;;;;;;13.50;5.85;;;12.50;50.60;;;;;;10202173;28;20134;-84
2021/04/12 01:43:40;;;;;;;12.35;5.75;;;15.80;52.20;;;;;;10219774;28;20115;-85
2021/04/12 01:48:48;;;;;;;11.82;5.55;;;15.40;50.90;;;;;;10218544;28;20071;-84
2021/04/12 01:54:07;;;;;;;17.27;5.60;;;15.50;52.30;;;;;;10218847;28;20049;-85
2021/04/12 01:59:13;;;;;;;12.27;5.40;;;15.60;52.40;;;;;;10217648;28;20912;-84
2021/04/12 02:04:27;;;;;;;13.57;5.60;;;15.60;52.50;;;;;;10218750;28;20443;-85
2021/04/12 02:09:47;;;;;;;11.88;5.95;;;15.20;52.50;;;;;;10226097;28;20046;-84
2021/04/12 02:14:50;;;;;;;13.45;5.43;;;13.90;51.10;;;;;;10215649;28;20047;-84
2021/04/12 02:19:54;;;;;;;11.90;5.57;;;12.70;51.40;;;;;;10199469;28;20040;-83
2021/04/12 02:24:58;;;;;;;13.70;5.38;;;15.00;51.80;;;;;;10217489;28;20051;-84
2021/04/12 02:29:57;;;;;;;11.75;5.50;;;14.10;51.40;;;;;;10217487;28;20536;-84
2021/04/12 02:35:05;;;;;;;15.85;5.95;;;14.70;51.90;;;;;;10217363;28;20047;-85
2021/04/12 02:40:15;;;;;;;10.10;5.00;;;13.00;52.00;;;;;;10216978;28;20056;-85
2021/04/12 02:45:18;;;;;;;11.02;5.22;;;12.50;50.90;;;;;;10217109;28;20044;-83
2021/04/12 02:50:29;;;;;;;11.98;5.60;;;14.30;51.80;;;;;;10216748;28;20055;-83
2021/04/12 02:55:45;;;;;;;10.88;5.25;;;12.20;51.00;;;;;;10216437;28;20055;-84
2021/04/12 03:00:58;;;;;;;10.40;5.40;;;13.40;52.50;;;;;;10218348;28;20478;-84
2021/04/12 03:06:40;;;;;;;12.10;5.65;;;14.50;52.20;;;;;;10216766;28;20059;-81
2021/04/12 03:12:00;;;;;;;11.75;5.88;;;13.70;52.70;;;;;;10145335;28;20482;-83
2021/04/12 03:17:07;;;;;;;10.70;5.35;;;;;;;;;;10214691;28;20059;-82
2021/04/12 03:22:21;;;;;;;13.50;6.07;;;12.10;52.10;;;;;;10215347;28;20108;-82
2021/04/12 03:27:35;;;;;;;12.88;6.05;;;14.60;52.60;;;;;;10214701;28;20088;-81
2021/04/12 03:32:58;;;;;;;10.07;5.25;;;14.30;52.50;;;;;;10214420;28;20052;-81
2021/04/12 03:38:10;;;;;;;13.35;5.60;;;12.30;51.60;;;;;;10211527;28;20067;-80
2021/04/12 03:43:30;;;;;;;17.33;6.25;;;13.80;53.40;;;;;;10213938;28;20090;-81
2021/04/12 03:48:36;;;;;;;11.75;5.20;;;12.10;52.80;;;;;;10213637;28;20054;-81
2021/04/12 03:54:11;;;;;;;10.63;5.85;;;14.00;52.80;;;;;;10213045;28;20515;-81
2021/04/12 03:59:32;;;;;;;13.57;6.43;;;12.40;52.50;;;;;;10213733;28;20051;-80
2021/04/12 04:05:12;;;;;;;14.35;6.30;;;12.80;52.80;;;;;;10195831;28;20058;-81
2021/04/12 04:10:34;;;;;;;14.95;6.32;;;13.30;54.10;;;;;;10215507;28;20055;-78
2021/04/12 04:15:36;;;;;;;14.07;6.75;;;12.60;53.00;;;;;;10213120;28;20052;-79
2021/04/12 04:20:52;;;;;;;19.15;7.22;;;12.60;54.00;;;;;;10214175;28;20048;-79
2021/04/12 04:26:19;;;;;;;12.85;6.63;;;13.30;53.40;;;;;;10213127;28;20047;-82
2021/04/12 04:31:29;;;;;;;13.10;6.60;;;12.60;53.60;;;;;;10214313;28;20040;-80
2021/04/12 04:36:34;;;;;;;23.05;11.10;;;14.20;54.50;;;;;;10213476;28;20051;-80
2021/04/12 04:41:49;;;;;;;17.63;7.43;;;14.30;54.60;;;;;;10212882;28;20139;-81
2021/04/12 04:46:59;;;;;;;16.20;7.55;;;12.30;53.30;;;;;;10218030;28;20055;-80
2021/04/12 04:52:23;;;;;;;13.52;7.25;;;12.40;54.30;;;;;;10220772;28;20429;-79
2021/04/12 04:57:35;;;;;;;13.07;7.20;;;13.80;54.20;;;;;;10216622;28;20056;-78
2021/04/12 05:03:31;;;;;;;16.50;7.93;;;12.90;53.50;;;;;;10220389;28;20052;-77
2021/04/12 05:08:51;;;;;;;15.77;8.32;;;12.20;53.50;;;;;;10219265;28;20075;-78
2021/04/12 05:14:19;;;;;;;15.85;7.95;;;13.70;54.30;;;;;;10219361;28;20051;-77
2021/04/12 05:19:40;;;;;;;16.95;7.75;;;;;;;;;;10219608;28;20054;-77
2021/04/12 05:24:58;;;;;;;17.23;8.50;;;12.20;53.50;;;;;;10212435;28;20425;-77
2021/04/12 05:30:20;;;;;;;13.88;7.60;;;13.70;54.90;;;;;;10219142;28;20051;-78
2021/04/12 05:35:54;;;;;;;20.40;9.90;;;13.90;53.90;;;;;;10201496;28;20051;-78
2021/04/12 05:40:55;;;;;;;22.88;9.23;;;14.40;54.80;;;;;;10170169;28;20060;-77
2021/04/12 05:46:08;;;;;;;18.80;8.45;;;12.90;54.70;;;;;;10217790;28;20092;-79
2021/04/12 05:51:18;;;;;;;24.40;9.85;;;13.00;54.40;;;;;;10214509;28;20219;-78
2021/04/12 05:56:20;;;;;;;;;;;12.60;53.50;;;;;;10216401;28;20047;-80
2021/04/12 06:01:29;;;;;;;21.17;9.10;;;14.10;53.80;;;;;;10216215;28;19920;-79
2021/04/12 06:06:58;;;;;;;19.77;9.40;;;12.70;53.20;;;;;;10198526;28;20051;-79
2021/04/12 06:12:05;;;;;;;19.23;9.57;;;12.20;52.50;;;;;;10216767;28;20043;-79
2021/04/12 06:17:48;;;;;;;21.73;9.07;;;14.00;53.30;;;;;;10216420;28;20082;-80
2021/04/12 06:23:09;;;;;;;17.08;8.95;;;12.80;52.20;;;;;;10049211;28;20081;-78
2021/04/12 06:28:45;;;;;;;29.30;9.95;;;14.10;53.00;;;;;;10184732;28;20593;-79
2021/04/12 06:34:12;;;;;;;23.65;9.40;;;14.20;52.50;;;;;;10206980;28;20175;-79
2021/04/12 06:39:36;;;;;;;22.65;9.13;;;13.90;52.20;;;;;;10214597;28;20525;-79
2021/04/12 06:44:58;;;;;;;21.20;9.35;;;13.70;52.30;;;;;;10214093;28;20118;-77
2021/04/12 06:50:07;;;;;;;21.38;9.63;;;;;;;;;;10214579;28;20048;-78
2021/04/12 06:55:18;;;;;;;20.42;9.18;;;15.20;53.80;;;;;;10214477;28;20073;-81
2021/04/12 07:00:37;;;;;;;21.50;9.52;;;14.60;52.60;;;;;;10196175;28;20104;-82
2021/04/12 07:06:02;;;;;;;22.15;9.68;;;14.40;52.30;;;;;;10214865;28;20371;-83
2021/04/12 07:11:21;;;;;;;21.30;9.68;;;14.90;53.30;;;;;;10196366;28;20043;-83
2021/04/12 07:16:53;;;;;;;20.88;8.45;;;15.30;53.30;;;;;;10211814;28;20044;-83
2021/04/12 07:22:07;;;;;;;19.63;8.65;;;15.40;52.30;;;;;;10195153;28;20065;-85
2021/04/12 07:27:39;;;;;;;18.60;6.53;;;13.80;50.70;;;;;;10211225;28;20079;-85
2021/04/12 07:32:51;;;;;;;;;;;15.50;50.90;;;;;;10206331;28;20052;-83
2021/04/12 07:38:18;;;;;;;19.73;7.18;;;16.70;51.00;;;;;;10187547;28;19964;-83
2021/04/12 07:43:44;;;;;;;13.10;5.38;;;14.90;50.00;;;;;;10165377;28;20052;-83
2021/04/12 07:49:13;;;;;;;16.17;5.82;;;15.50;49.70;;;;;;10146457;28;20448;-81
2021/04/12 07:55:06;;;;;;;13.73;5.30;;;17.60;50.90;;;;;;10172013;28;20044;-82
2021/04/12 08:00:19;;;;;;;14.13;5.85;;;;;;;;;;10170135;28;20052;-81
2021/04/12 08:05:40;;;;;;;8.43;4.53;;;;;;;;;;10123753;28;20455;-78
2021/04/12 08:11:06;;;;;;;11.02;4.95;;;17.20;50.00;;;;;;10171365;28;20437;-78
2021/04/12 08:16:48;;;;;;;12.88;5.07;;;16.80;49.10;;;;;;10146634;28;20056;-78
2021/04/12 08:22:18;;;;;;;11.50;5.00;;;16.10;49.10;;;;;;10176951;28;20092;-78
2021/04/12 08:27:36;;;;;;;15.10;4.30;;;;;;;;;;10179472;28;20092;-79
2021/04/12 08:33:07;;;;;;;6.85;2.70;;;17.90;50.20;;;;;;10172054;28;20129;-78
2021/04/12 08:38:42;;;;;;;10.30;2.60;;;16.90;48.30;;;;;;10180579;28;20056;-77
2021/04/12 08:44:11;;;;;;;6.82;2.65;;;16.70;47.90;;;;;;10219420;28;20052;-80
2021/04/12 08:49:14;;;;;;;6.82;2.33;;;;;;;;;;10219438;28;20044;-78
2021/04/12 08:54:43;;;;;;;7.72;2.40;;;15.40;47.10;;;;;;10219937;28;20040;-78
2021/04/12 09:00:12;;;;;;;5.18;2.63;;;17.10;47.30;;;;;;10185662;28;20060;-76
2021/04/12 09:05:30;;;;;;;9.23;2.60;;;16.20;47.20;;;;;;10220239;28;20051;-78
2021/04/12 09:10:39;;;;;;;13.40;3.15;;;17.30;47.20;;;;;;10218822;28;20533;-77
2021/04/12 09:16:05;;;;;;;11.63;2.80;;;17.50;46.80;;;;;;10199302;28;20047;-77
2021/04/12 09:21:22;;;;;;;9.75;2.97;;;18.20;46.30;;;;;;10218637;28;20050;-77
2021/04/12 09:26:54;;;;;;;5.93;2.28;;;17.80;45.90;;;;;;10219405;28;20059;-78
2021/04/12 09:32:21;;;;;;;6.88;2.10;;;;;;;;;;10197596;28;20514;-78
2021/04/12 09:37:32;;;;;;;4.72;2.13;;;;;;;;;;10216956;28;20101;-76
2021/04/12 09:42:56;;;;;;;9.63;2.70;;;19.00;46.40;;;;;;10216760;28;20059;-78
2021/04/12 09:48:22;;;;;;;6.65;2.60;;;18.90;46.40;;;;;;10216760;28;20046;-77
2021/04/12 09:54:11;;;;;;;10.00;2.58;;;18.20;45.00;;;;;;10183525;28;20044;-78
2021/04/12 09:59:44;;;;;;;6.50;1.88;;;18.50;44.80;;;;;;10184402;28;20051;-76
2021/04/12 10:05:03;;;;;;;5.97;2.08;;;18.60;44.80;;;;;;10198196;28;20052;-77
2021/04/12 10:10:05;;;;;;;;;;;19.00;45.30;;;;;;10213714;28;20058;-79
2021/04/12 10:15:09;;;;;;;4.60;2.03;;;18.60;45.10;;;;;;10198911;28;20010;-78
2021/04/12 10:20:07;;;;;;;4.10;1.75;;;20.90;46.10;;;;;;10215234;28;20092;-77
2021/04/12 10:25:10;;;;;;;4.53;1.70;;;18.70;45.80;;;;;;10214007;28;20405;-76
2021/04/12 10:30:07;;;;;;;2.72;1.83;;;18.60;45.30;;;;;;10195729;28;20055;-77
2021/04/12 10:35:05;;;;;;;6.93;1.98;;;19.30;45.90;;;;;;10213512;28;20085;-77
2021/04/12 10:40:05;;;;;;;4.53;1.92;;;21.80;46.20;;;;;;10213682;28;20147;-76
2021/04/12 10:45:03;;;;;;;5.28;1.63;;;;;;;;;;10212792;28;20062;-78
2021/04/12 10:50:08;;;;;;;4.55;1.40;;;19.10;44.10;;;;;;10211807;28;20055;-78
2021/04/12 10:55:12;;;;;;;4.72;1.73;;;19.60;45.50;;;;;;10213196;28;20193;-76
2021/04/12 11:00:14;;;;;;;3.83;1.40;;;;;;;;;;10210867;28;20048;-77
2021/04/12 11:05:09;;;;;;;3.95;1.60;;;21.40;45.90;;;;;;10212800;28;20122;-77
2021/04/12 11:10:13;;;;;;;5.05;1.70;;;20.80;45.10;;;;;;10213126;28;20062;-77
2021/04/12 11:15:25;;;;;;;5.38;1.48;;;21.70;43.80;;;;;;10213780;28;20055;-77
2021/04/12 11:20:20;;;;;;;5.00;1.75;;;;;;;;;;10213561;28;20070;-77
2021/04/12 11:25:17;;;;;;;6.30;1.77;;;21.80;43.90;;;;;;10194420;28;20051;-76
2021/04/12 11:30:17;;;;;;;4.63;1.70;;;20.20;39.90;;;;;;10213144;28;20043;-78
2021/04/12 11:35:17;;;;;;;5.32;1.63;;;23.50;38.60;;;;;;10213341;28;20043;-77
2021/04/12 11:40:23;;;;;;;5.60;1.60;;;22.70;37.40;;;;;;10213077;28;20066;-77
2021/04/12 11:45:19;;;;;;;5.28;1.67;;;24.60;37.20;;;;;;10212764;28;20135;-77
2021/04/12 11:50:27;;;;;;;3.92;1.65;;;23.80;36.70;;;;;;10213619;28;20051;-79
2021/04/12 11:55:34;;;;;;;5.80;2.00;;;24.30;36.50;;;;;;10211988;28;20123;-77
2021/04/12 12:00:30;;;;;;;4.97;1.70;;;23.80;34.30;;;;;;10194870;28;20052;-78
2021/04/12 12:05:31;;;;;;;4.15;1.67;;;28.10;33.10;;;;;;10211273;28;20048;-77
2021/04/12 12:10:38;;;;;;;8.38;3.15;;;26.90;33.60;;;;;;10212358;28;20051;-77
2021/04/12 12:15:36;;;;;;;9.05;2.20;;;;;;;;;;10212280;28;20054;-77
2021/04/12 12:20:43;;;;;;;8.88;1.95;;;23.20;36.70;;;;;;10211561;28;20039;-77
2021/04/12 12:25:40;;;;;;;9.40;2.03;;;22.90;39.00;;;;;;10206229;28;20054;-77
2021/04/12 12:30:43;;;;;;;3.25;1.70;;;22.30;39.40;;;;;;10211721;28;20044;-79
2021/04/12 12:36:02;;;;;;;8.70;2.10;;;22.60;37.60;;;;;;10211732;28;20077;-78
2021/04/12 12:40:58;;;;;;;7.82;2.30;;;22.00;39.80;;;;;;10212078;28;20051;-77
2021/04/12 12:45:52;;;;;;;9.25;2.08;;;21.90;39.60;;;;;;10211724;28;20501;-77
2021/04/12 12:50:47;;;;;;;6.30;1.88;;;;;;;;;;10190444;28;20481;-76
2021/04/12 12:55:47;;;;;;;10.88;2.28;;;23.10;38.40;;;;;;10208477;28;20052;-76
2021/04/12 13:00:42;;;;;;;6.53;2.28;;;21.50;37.70;;;;;;10192376;28;20134;-76
2021/04/12 13:05:36;;;;;;;7.40;2.08;;;23.10;38.90;;;;;;10212235;28;20039;-78
2021/04/12 13:10:34;;;;;;;5.72;2.10;;;22.60;38.90;;;;;;10194391;28;20060;-77
2021/04/12 13:15:33;;;;;;;6.18;1.90;;;22.00;38.40;;;;;;10217854;28;20051;-76
2021/04/12 13:20:34;;;;;;;7.90;2.10;;;22.80;38.80;;;;;;10217722;28;20511;-76
2021/04/12 13:25:36;;;;;;;8.95;1.75;;;22.40;37.80;;;;;;10217663;28;20043;-78
2021/04/12 13:30:34;;;;;;;9.18;1.95;;;22.00;37.90;;;;;;10218211;28;20051;-76
2021/04/12 13:35:32;;;;;;;7.95;2.13;;;21.60;37.40;;;;;;10217748;28;20097;-78
2021/04/12 13:40:28;;;;;;;7.07;1.85;;;22.80;37.70;;;;;;10207539;28;20048;-77
2021/04/12 13:45:26;;;;;;;6.18;2.00;;;;;;;;;;10176614;28;20520;-76
2021/04/12 13:50:23;;;;;;;7.85;2.03;;;21.00;36.90;;;;;;10208267;28;20043;-78
2021/04/12 13:55:24;;;;;;;5.47;1.80;;;22.70;37.50;;;;;;10174716;28;20131;-77
2021/04/12 14:00:23;;;;;;;5.75;1.90;;;23.40;36.60;;;;;;10157702;28;20044;-78
2021/04/12 14:05:21;;;;;;;10.25;2.08;;;22.20;36.90;;;;;;10174893;28;20115;-78
2021/04/12 14:10:16;;;;;;;;;;;22.40;35.50;;;;;;10172678;28;20099;-76
2021/04/12 14:15:16;;;;;;;7.72;2.50;;;21.40;36.90;;;;;;10216529;28;19927;-76
2021/04/12 14:20:14;;;;;;;7.13;2.08;;;22.50;36.10;;;;;;10208601;28;20071;-76
2021/04/12 14:25:16;;;;;;;6.95;1.95;;;21.10;37.20;;;;;;10215055;28;20047;-76
2021/04/12 14:30:14;;;;;;;11.65;2.22;;;22.40;38.10;;;;;;10215079;28;20576;-76
2021/04/12 14:35:12;;;;;;;5.53;1.80;;;22.00;37.80;;;;;;10216349;28;20100;-77
2021/04/12 14:47:12;;;;;;;7.15;2.50;;;21.30;39.60;;;;;;10189918;28;20032;-77
2021/04/12 14:52:12;;;;;;;4.38;1.77;;;21.10;39.80;;;;;;10195548;28;20138;-77
2021/04/12 14:57:10;;;;;;;6.95;1.88;;;20.00;38.70;;;;;;10214754;28;20305;-77
2021/04/12 15:02:07;;;;;;;12.43;2.33;;;20.90;39.40;;;;;;10214481;28;20043;-76
2021/04/12 15:07:06;;;;;;;8.60;2.43;;;20.50;40.00;;;;;;10214777;28;20057;-77
2021/04/12 15:12:04;;;;;;;6.00;2.25;;;21.20;40.30;;;;;;10189914;28;20070;-77
2021/04/12 15:16:59;;;;;;;8.23;2.30;;;21.40;40.60;;;;;;10214677;28;20404;-78
2021/04/12 15:21:57;;;;;;;7.72;2.65;;;19.80;39.00;;;;;;10213845;28;20107;-80
2021/04/12 15:26:55;;;;;;;11.30;2.60;;;19.60;39.10;;;;;;10212360;28;20043;-79
2021/04/12 15:31:55;;;;;;;10.23;2.67;;;20.00;39.60;;;;;;10212344;28;20043;-77
2021/04/12 15:36:55;;;;;;;5.85;1.83;;;18.20;39.70;;;;;;10213165;28;20038;-76
2021/04/12 15:41:49;;;;;;;8.75;2.58;;;20.70;41.20;;;;;;10213309;28;20415;-78
2021/04/12 15:46:45;;;;;;;8.38;2.55;;;19.30;39.90;;;;;;10196002;28;20055;-79
2021/04/12 15:51:41;;;;;;;11.80;2.35;;;19.80;41.20;;;;;;10213085;28;20138;-78
2021/04/12 15:56:38;;;;;;;13.65;2.80;;;;;;;;;;10212853;28;20051;-78
2021/04/12 16:01:36;;;;;;;5.95;2.35;;;17.80;45.30;;;;;;10213746;28;20052;-78
2021/04/12 16:06:32;;;;;;;5.22;2.30;;;18.20;51.80;;;;;;10212114;28;20047;-79
2021/04/12 16:11:31;;;;;;;9.73;2.53;;;18.30;50.60;;;;;;10210928;28;20048;-78
2021/04/12 16:16:29;;;;;;;6.13;2.67;;;18.00;52.70;;;;;;10212489;28;20050;-77
2021/04/12 16:21:37;;;;;;;7.47;3.00;;;19.10;55.00;;;;;;10212403;28;20052;-77
2021/04/12 16:26:37;;;;;;;6.97;2.72;;;17.50;54.50;;;;;;10195153;28;20538;-78
2021/04/12 16:31:33;;;;;;;7.15;3.15;;;17.40;55.00;;;;;;10205338;28;20055;-77
2021/04/12 16:36:33;;;;;;;7.65;2.75;;;17.40;55.30;;;;;;10192801;28;20058;-79
2021/04/12 16:41:30;;;;;;;7.53;2.80;;;17.10;56.10;;;;;;10196376;28;20061;-77
2021/04/12 16:46:31;;;;;;;7.22;3.25;;;18.50;56.90;;;;;;10219990;28;20059;-77
2021/04/12 16:51:29;;;;;;;11.02;3.65;;;17.80;55.70;;;;;;10189799;28;20055;-78
2021/04/12 16:56:27;;;;;;;8.07;4.07;;;18.80;58.20;;;;;;10219092;28;20504;-80
2021/04/12 17:01:28;;;;;;;11.70;4.20;;;17.20;58.40;;;;;;10219124;28;20066;-78
2021/04/12 17:06:28;;;;;;;7.95;3.70;;;18.00;59.50;;;;;;10219713;28;20446;-76
2021/04/12 17:11:27;;;;;;;8.85;3.33;;;18.20;59.70;;;;;;10192465;28;20060;-78
2021/04/12 17:16:28;;;;;;;8.68;3.58;;;17.10;59.60;;;;;;10216600;28;20040;-77
2021/04/12 17:21:25;;;;;;;13.75;3.70;;;17.60;60.90;;;;;;10219451;28;20118;-79
2021/04/12 17:26:26;;;;;;;7.45;4.07;;;17.20;60.80;;;;;;10219721;28;20055;-80
2021/04/12 17:31:29;;;;;;;8.32;3.65;;;17.90;62.60;;;;;;10218263;28;20192;-78
2021/04/12 17:36:30;;;;;;;12.23;3.92;;;17.80;63.10;;;;;;10216133;28;20047;-79
2021/04/12 17:41:26;;;;;;;8.32;3.97;;;18.00;63.50;;;;;;10217365;28;20058;-79
2021/04/12 17:46:24;;;;;;;11.40;4.80;;;17.10;63.30;;;;;;10217579;28;20047;-77
2021/04/12 17:51:22;;;;;;;10.70;4.70;;;15.50;62.80;;;;;;10217023;28;20060;-78
2021/04/12 17:56:19;;;;;;;10.93;3.83;;;18.10;64.90;;;;;;10217983;28;20058;-79
2021/04/12 18:01:27;;;;;;;8.80;4.22;;;17.40;65.30;;;;;;10218239;28;20047;-78
2021/04/12 18:06:23;;;;;;;6.63;3.65;;;17.70;65.80;;;;;;10217821;28;20127;-78
2021/04/12 18:11:25;;;;;;;9.35;4.13;;;15.60;64.70;;;;;;10216502;28;20127;-78
2021/04/12 18:16:27;;;;;;;4.95;3.28;;;14.80;64.00;;;;;;10216871;28;20056;-78
2021/04/12 18:21:23;;;;;;;10.13;4.82;;;;;;;;;;10216858;28;20043;-79
2021/04/12 18:26:19;;;;;;;5.30;3.33;;;17.60;65.20;;;;;;10216064;28;20070;-78
2021/04/12 18:31:31;;;;;;;7.57;3.47;;;17.50;65.80;;;;;;10207836;28;20043;-78
2021/04/12 18:36:30;;;;;;;7.03;3.47;;;17.30;65.60;;;;;;10209230;28;20183;-78
2021/04/12 18:41:28;;;;;;;11.45;6.75;;;15.10;63.40;;;;;;10211066;28;20059;-79
2021/04/12 18:47:00;;;;;;;11.82;7.18;;;17.50;64.30;;;;;;10196647;28;20244;-78
2021/04/12 18:52:09;;;;;;;13.70;7.78;;;15.50;63.60;;;;;;10202622;28;20090;-76
2021/04/12 18:57:07;;;;;;;;;;;15.20;62.10;;;;;;10213677;28;20516;-76
2021/04/12 19:02:12;;;;;;;15.18;8.30;;;17.10;63.80;;;;;;10215343;28;19919;-76
2021/04/12 19:07:12;;;;;;;17.25;9.90;;;15.30;63.10;;;;;;10215040;28;20096;-77
2021/04/12 19:12:11;;;;;;;14.63;9.45;;;14.60;63.60;;;;;;10214536;28;20047;-77
2021/04/12 19:17:07;;;;;;;18.65;10.07;;;;;;;;;;10214439;28;20058;-76
2021/04/12 19:22:14;;;;;;;19.48;10.38;;;15.50;64.40;;;;;;10215097;28;20043;-77
2021/04/12 19:27:17;;;;;;;15.32;9.95;;;14.10;62.00;;;;;;10215432;28;20050;-78
2021/04/12 19:32:19;;;;;;;15.63;9.70;;;14.40;63.40;;;;;;10214468;28;20055;-77
2021/04/12 19:37:16;;;;;;;20.05;9.80;;;15.30;64.00;;;;;;10214098;28;20091;-74
2021/04/12 19:42:34;;;;;;;13.52;9.07;;;13.90;62.20;;;;;;10213994;28;20060;-78
2021/04/12 19:47:58;;;;;;;13.38;9.00;;;15.20;62.90;;;;;;10214168;28;20047;-77
2021/04/12 19:53:20;;;;;;;19.92;9.48;;;13.90;62.30;;;;;;10200954;28;20060;-78
2021/04/12 19:58:17;;;;;;;15.27;9.02;;;;;;;;;;10212751;28;20057;-78
2021/04/12 20:03:16;;;;;;;13.00;8.63;;;13.80;62.60;;;;;;10193884;28;20036;-76
2021/04/12 20:08:16;;;;;;;13.57;9.15;;;13.70;62.10;;;;;;10213078;28;20054;-77
2021/04/12 20:13:27;;;;;;;16.27;8.27;;;13.80;62.80;;;;;;10212443;28;20128;-78
2021/04/12 20:18:41;;;;;;;10.18;7.90;;;13.60;61.70;;;;;;10220787;28;20088;-76
2021/04/12 20:23:57;;;;;;;10.68;6.97;;;15.50;63.60;;;;;;10220674;28;20051;-76
2021/04/12 20:29:00;;;;;;;10.57;6.72;;;13.70;61.50;;;;;;10219809;28;20043;-76
2021/04/12 20:34:34;;;;;;;9.75;6.53;;;14.10;63.30;;;;;;10202599;28;20043;-77
2021/04/12 20:39:30;;;;;;;9.30;7.05;;;12.80;62.50;;;;;;10218366;28;20051;-78
2021/04/12 20:44:51;;;;;;;7.90;6.30;;;12.00;61.30;;;;;;10221506;28;20040;-78
2021/04/12 20:49:53;;;;;;;10.32;6.32;;;13.40;61.80;;;;;;10220694;28;20055;-78
2021/04/12 20:54:50;;;;;;;8.98;6.47;;;12.10;62.60;;;;;;10215863;28;20048;-77
2021/04/12 20:59:49;;;;;;;9.13;5.97;;;11.60;61.40;;;;;;10219577;28;20052;-77
2021/04/12 21:04:47;;;;;;;7.23;5.33;;;12.10;62.40;;;;;;10219111;28;20551;-77
2021/04/12 21:09:41;;;;;;;9.40;4.88;;;;;;;;;;10219622;28;20473;-76
2021/04/12 21:14:42;;;;;;;7.00;5.00;;;11.80;61.30;;;;;;10219616;28;20138;-78
2021/04/12 21:19:39;;;;;;;6.00;4.53;;;12.10;61.80;;;;;;10219541;28;20116;-78
2021/04/12 21:24:37;;;;;;;6.47;3.88;;;11.90;61.30;;;;;;10218929;28;20051;-77
2021/04/12 21:29:36;;;;;;;5.45;4.07;;;12.30;62.00;;;;;;10217837;28;20058;-77
2021/04/12 21:34:35;;;;;;;3.72;3.38;;;11.50;60.10;;;;;;10200147;28;20079;-78
2021/04/12 21:39:31;;;;;;;5.18;3.17;;;;;;;;;;10217813;28;20097;-77
2021/04/12 21:44:31;;;;;;;3.80;2.70;;;11.60;61.10;;;;;;10219716;28;20084;-78
2021/04/12 21:49:25;;;;;;;3.20;2.67;;;12.70;61.70;;;;;;10196747;28;20514;-78
2021/04/12 21:54:31;;;;;;;3.15;2.80;;;10.60;60.20;;;;;;10217944;28;20074;-79
2021/04/12 21:59:36;;;;;;;6.32;2.67;;;12.50;61.60;;;;;;10218232;28;20055;-77
2021/04/12 22:04:39;;;;;;;2.63;2.40;;;;;;;;;;10199399;28;20122;-78
2021/04/12 22:09:45;;;;;;;2.47;2.28;;;12.60;61.20;;;;;;10217147;28;20048;-78
2021/04/12 22:14:53;;;;;;;3.92;2.33;;;11.10;60.10;;;;;;10217221;28;20050;-77
2021/04/12 22:19:56;;;;;;;2.42;2.20;;;11.80;60.60;;;;;;10216867;28;20051;-76
2021/04/12 22:24:58;;;;;;;5.70;2.60;;;12.50;62.20;;;;;;10198419;28;20047;-77
2021/04/12 22:30:09;;;;;;;3.22;2.63;;;;;;;;;;10216860;28;20066;-77
2021/04/12 22:35:16;;;;;;;3.67;2.45;;;12.10;62.50;;;;;;10197948;28;20513;-77
2021/04/12 22:40:37;;;;;;;2.60;2.08;;;10.50;61.60;;;;;;10215624;28;20051;-77
2021/04/12 22:45:54;;;;;;;2.35;2.15;;;9.50;59.80;;;;;;10217399;28;20055;-76
2021/04/12 22:50:49;;;;;;;2.20;2.00;;;11.00;61.30;;;;;;10216396;28;20164;-77
2021/04/12 22:56:06;;;;;;;4.22;2.47;;;9.60;61.00;;;;;;10215095;28;20371;-78
2021/04/12 23:01:01;;;;;;;6.38;2.22;;;;;;;;;;10214191;28;20100;-78
2021/04/12 23:05:54;;;;;;;2.47;2.28;;;9.30;60.70;;;;;;10214841;28;20097;-77
2021/04/12 23:10:53;;;;;;;2.80;1.88;;;10.40;61.30;;;;;;10210748;28;20490;-78
2021/04/12 23:15:46;;;;;;;2.07;1.87;;;;;;;;;;10215098;28;20556;-77
2021/04/12 23:20:41;;;;;;;3.08;2.42;;;10.70;62.50;;;;;;10214360;28;20046;-78
2021/04/12 23:25:37;;;;;;;2.92;2.22;;;10.00;61.60;;;;;;10214843;28;20052;-78
2021/04/12 23:30:35;;;;;;;2.72;1.88;;;10.80;62.30;;;;;;10214326;28;20123;-76
2021/04/12 23:35:30;;;;;;;2.10;1.90;;;9.40;62.20;;;;;;10214262;28;20046;-77
2021/04/12 23:40:29;;;;;;;3.05;2.20;;;8.80;61.60;;;;;;10213577;28;20108;-78
2021/04/12 23:45:27;;;;;;;1.80;1.70;;;10.30;62.60;;;;;;10213761;28;20073;-77
2021/04/12 23:50:23;;;;;;;2.00;1.80;;;10.00;61.80;;;;;;10213464;28;20048;-76
2021/04/12 23:55:50;;;;;;;2.20;2.00;;;10.10;61.70;;;;;;10212827;28;20047;-77
